Time;durP1;ratioP1;P1;durP2;ratioP2;P2;SDS_P1;SDS_P2;PMS_P1;PMS_P2;Temp;Humidity;BMP_temperature;BMP_pressure;BME280_temperature;BME280_humidity;BME280_pressure;Samples;Min_cycle;Max_cycle;Signal;HPM_P1;HPM_P2
2021/04/05 00:00:16;;;;;;;44.20;26.92;;;;;;;;;;5094242;28;20028;-73
2021/04/05 00:02:42;;;;;;;48.33;26.50;;;;;;;;;;5093356;28;20063;-73
2021/04/05 00:05:17;;;;;;;42.00;25.58;;;;;;;;;;5094348;28;20051;-73
2021/04/05 00:07:45;;;;;;;45.78;25.20;;;;;;;;;;5093837;28;20033;-75
2021/04/05 00:10:18;;;;;;;38.45;23.75;;;;;;;;;;5092678;28;20477;-73
2021/04/05 00:12:44;;;;;;;46.97;25.27;;;;;;;;;;5092846;28;20040;-73
2021/04/05 00:15:12;;;;;;;48.83;25.15;;;;;;;;;;5093938;28;20059;-73
2021/04/05 00:17:39;;;;;;;42.05;24.65;;;;;;;;;;5092871;28;20047;-73
2021/04/05 00:20:10;;;;;;;42.30;24.50;;;;;;;;;;5093787;28;20039;-73
2021/04/05 00:22:37;;;;;;;44.72;24.38;;;;;;;;;;5093908;28;20027;-73
2021/04/05 00:25:04;;;;;;;44.65;24.60;;;;;;;;;;5093772;28;20032;-73
2021/04/05 00:27:29;;;;;;;48.95;25.45;;;;;;;;;;5093496;28;20056;-73
2021/04/05 00:29:55;;;;;;;45.45;25.00;;;;;;;;;;5093710;28;20056;-73
2021/04/05 00:32:20;;;;;;;40.45;24.92;;;;;;;;;;5093949;28;20036;-73
2021/04/05 00:34:45;;;;;;;46.00;24.80;;;;;;;;;;5093070;28;20032;-73
2021/04/05 00:37:11;;;;;;;41.05;23.92;;;;;;;;;;5093281;28;20060;-73
2021/04/05 00:39:36;;;;;;;40.20;24.02;;;;;;;;;;5093753;28;20040;-73
2021/04/05 00:42:02;;;;;;;44.67;24.40;;;;;;;;;;5093313;28;20036;-73
2021/04/05 00:44:28;;;;;;;49.88;25.75;;;;;;;;;;5092591;28;20036;-73
2021/04/05 00:46:53;;;;;;;49.60;24.88;;;;;;;;;;5093513;28;20036;-73
2021/04/05 00:49:19;;;;;;;45.63;25.55;;;;;;;;;;5093422;28;20050;-73
2021/04/05 00:51:44;;;;;;;41.28;23.25;;;;;;;;;;5092023;28;20042;-73
2021/04/05 00:54:10;;;;;;;53.65;25.42;;;;;;;;;;5093647;28;20024;-73
2021/04/05 00:56:36;;;;;;;40.75;23.90;;;;;;;;;;5093455;28;20036;-73
2021/04/05 00:59:01;;;;;;;46.05;25.35;;;;;;;;;;5092916;28;20032;-73
2021/04/05 01:01:27;;;;;;;41.92;23.85;;;;;;;;;;5075198;28;20078;-73
2021/04/05 01:03:54;;;;;;;44.42;25.13;;;;;;;;;;5092654;28;20036;-74
2021/04/05 01:06:25;;;;;;;42.17;24.50;;;;;;;;;;5093264;28;20036;-73
2021/04/05 01:08:50;;;;;;;46.92;25.20;;;;;;;;;;5093049;28;20024;-73
2021/04/05 01:11:19;;;;;;;43.17;24.63;;;;;;;;;;5093303;28;20393;-73
2021/04/05 01:13:46;;;;;;;42.72;23.58;;;;;;;;;;5093048;28;20067;-73
2021/04/05 01:16:12;;;;;;;48.75;25.58;;;;;;;;;;5092130;28;20036;-73
2021/04/05 01:18:39;;;;;;;46.55;24.88;;;;;;;;;;5093130;28;20028;-73
2021/04/05 01:21:05;;;;;;;44.78;25.42;;;;;;;;;;5091939;28;20542;-73
2021/04/05 01:23:31;;;;;;;49.22;24.77;;;;;;;;;;5093193;28;20036;-73
2021/04/05 01:25:56;;;;;;;44.55;23.58;;;;;;;;;;5093170;28;20374;-73
2021/04/05 01:28:22;;;;;;;42.03;24.23;;;;;;;;;;5092534;28;20049;-73
2021/04/05 01:30:53;;;;;;;47.72;24.45;;;;;;;;;;5092860;28;20070;-73
2021/04/05 01:33:23;;;;;;;43.00;24.52;;;;;;;;;;5092782;28;20031;-73
2021/04/05 01:35:51;;;;;;;43.92;24.67;;;;;;;;;;5093123;28;20042;-73
2021/04/05 01:38:19;;;;;;;49.80;24.17;;;;;;;;;;5092913;28;20032;-73
2021/04/05 01:40:51;;;;;;;46.40;25.13;;;;;;;;;;5091595;28;20032;-73
2021/04/05 01:43:17;;;;;;;50.45;25.08;;;;;;;;;;5092696;28;20036;-73
2021/04/05 01:45:43;;;;;;;42.45;24.35;;;;;;;;;;5092819;28;20077;-73
2021/04/05 01:48:10;;;;;;;43.70;25.20;;;;;;;;;;5092025;28;20034;-73
2021/04/05 01:50:36;;;;;;;41.42;23.17;;;;;;;;;;5092947;28;20043;-73
2021/04/05 01:53:04;;;;;;;38.85;24.17;;;;;;;;;;5091848;28;20035;-73
2021/04/05 01:55:31;;;;;;;44.60;23.50;;;;;;;;;;5092897;28;20036;-73
2021/04/05 01:57:57;;;;;;;42.92;23.02;;;;;;;;;;5092686;28;20051;-73
2021/04/05 02:00:26;;;;;;;42.92;22.60;;;;;;;;;;5094330;28;20478;-73
2021/04/05 02:02:54;;;;;;;42.60;22.52;;;;;;;;;;5096813;28;20043;-72
2021/04/05 02:05:21;;;;;;;38.63;23.08;;;;;;;;;;5095585;28;20382;-73
2021/04/05 02:07:46;;;;;;;43.40;23.33;;;;;;;;;;5096313;28;20039;-72
2021/04/05 02:10:18;;;;;;;43.20;23.73;;;;;;;;;;5095130;28;20020;-73
2021/04/05 02:12:44;;;;;;;38.80;21.48;;;;;;;;;;5095169;28;20493;-73
2021/04/05 02:15:12;;;;;;;45.33;23.50;;;;;;;;;;5096573;28;20486;-72
2021/04/05 02:17:38;;;;;;;40.88;23.13;;;;;;;;;;5096015;28;20093;-73
2021/04/05 02:20:08;;;;;;;41.80;21.38;;;;;;;;;;5095313;28;20032;-73
2021/04/05 02:22:52;;;;;;;35.60;21.70;;;;;;;;;;5096468;28;20032;-73
2021/04/05 02:25:25;;;;;;;41.45;22.23;;;;;;;;;;5096103;28;20039;-73
2021/04/05 02:27:51;;;;;;;43.88;21.42;;;;;;;;;;5096244;28;20043;-72
2021/04/05 02:30:28;;;;;;;40.28;22.75;;;;;;;;;;5093998;28;20048;-73
2021/04/05 02:32:57;;;;;;;46.85;22.13;;;;;;;;;;5094885;28;20085;-72
2021/04/05 02:35:24;;;;;;;37.28;20.70;;;;;;;;;;5095781;28;20106;-73
2021/04/05 02:37:51;;;;;;;40.47;21.63;;;;;;;;;;5094921;28;20123;-73
2021/04/05 02:40:16;;;;;;;40.38;22.92;;;;;;;;;;5095760;28;20054;-73
2021/04/05 02:42:42;;;;;;;42.65;23.77;;;;;;;;;;5094880;28;20521;-73
2021/04/05 02:45:08;;;;;;;37.25;21.30;;;;;;;;;;5095879;28;20389;-73
2021/04/05 02:47:38;;;;;;;38.95;21.52;;;;;;;;;;5095723;28;20063;-73
2021/04/05 02:50:05;;;;;;;40.97;22.85;;;;;;;;;;5095869;28;20481;-73
2021/04/05 02:52:34;;;;;;;44.38;22.67;;;;;;;;;;5093743;28;20351;-73
2021/04/05 02:55:00;;;;;;;46.25;24.63;;;;;;;;;;5095640;28;20036;-73
2021/04/05 02:57:25;;;;;;;40.90;23.45;;;;;;;;;;5095528;28;20077;-72
2021/04/05 02:59:53;;;;;;;40.65;22.88;;;;;;;;;;5095359;28;20478;-74
2021/04/05 03:02:18;;;;;;;39.15;22.77;;;;;;;;;;5094110;28;20032;-72
2021/04/05 03:04:44;;;;;;;42.95;22.02;;;;;;;;;;5094085;28;20370;-74
2021/04/05 03:07:09;;;;;;;46.38;23.98;;;;;;;;;;5094025;28;20075;-73
2021/04/05 03:09:35;;;;;;;44.47;24.58;;;;;;;;;;5094456;28;20484;-73
2021/04/05 03:12:01;;;;;;;43.10;24.63;;;;;;;;;;5095481;28;20039;-73
2021/04/05 03:14:28;;;;;;;43.63;23.77;;;;;;;;;;5095418;28;20477;-73
2021/04/05 03:16:55;;;;;;;44.40;23.52;;;;;;;;;;5093552;28;20464;-73
2021/04/05 03:19:22;;;;;;;40.63;24.30;;;;;;;;;;5095327;28;20054;-73
2021/04/05 03:21:48;;;;;;;46.42;24.35;;;;;;;;;;5094940;28;20478;-72
2021/04/05 03:24:14;;;;;;;53.50;26.30;;;;;;;;;;5095334;28;20078;-72
2021/04/05 03:26:39;;;;;;;46.40;24.73;;;;;;;;;;5094828;28;20028;-73
2021/04/05 03:29:07;;;;;;;48.40;24.70;;;;;;;;;;5093717;28;20401;-73
2021/04/05 03:31:36;;;;;;;40.30;22.75;;;;;;;;;;5095161;28;20482;-73
2021/04/05 03:34:12;;;;;;;45.78;23.23;;;;;;;;;;5095079;28;20071;-73
2021/04/05 03:36:45;;;;;;;46.38;24.23;;;;;;;;;;5094142;28;20455;-73
2021/04/05 03:39:13;;;;;;;40.15;22.00;;;;;;;;;;5094656;28;20077;-73
2021/04/05 03:41:44;;;;;;;47.50;22.05;;;;;;;;;;5094655;28;20036;-72
2021/04/05 03:44:21;;;;;;;49.63;22.98;;;;;;;;;;5093683;28;20081;-72
2021/04/05 03:46:50;;;;;;;41.00;23.85;;;;;;;;;;5094602;28;20412;-72
2021/04/05 03:49:36;;;;;;;40.38;22.83;;;;;;;;;;5094683;28;20440;-73
2021/04/05 03:52:07;;;;;;;42.83;23.85;;;;;;;;;;5076552;28;20040;-73
2021/04/05 03:54:47;;;;;;;37.70;22.63;;;;;;;;;;5094556;28;20031;-73
2021/04/05 03:57:18;;;;;;;45.38;24.92;;;;;;;;;;5093722;28;20039;-73
2021/04/05 03:59:47;;;;;;;38.20;23.17;;;;;;;;;;5094644;28;20397;-73
2021/04/05 04:02:22;;;;;;;43.97;24.20;;;;;;;;;;5093690;28;20383;-73
2021/04/05 04:08:10;;;;;;;51.83;25.73;;;;;;;;;;5071419;28;20572;-73
2021/04/05 04:10:38;;;;;;;40.05;24.08;;;;;;;;;;5092217;28;20044;-73
2021/04/05 04:13:05;;;;;;;40.83;25.10;;;;;;;;;;5092899;28;20043;-73
2021/04/05 04:15:32;;;;;;;45.35;23.17;;;;;;;;;;5094260;28;20533;-73
2021/04/05 04:17:59;;;;;;;43.85;24.63;;;;;;;;;;5093997;28;20036;-73
2021/04/05 04:20:25;;;;;;;36.78;23.00;;;;;;;;;;5093966;28;20024;-73
2021/04/05 04:22:51;;;;;;;40.10;22.52;;;;;;;;;;5093619;28;20378;-73
2021/04/05 04:25:16;;;;;;;43.10;24.85;;;;;;;;;;5092866;28;20028;-73
2021/04/05 04:27:44;;;;;;;38.08;23.00;;;;;;;;;;5092424;28;20600;-73
2021/04/05 04:30:15;;;;;;;48.08;25.25;;;;;;;;;;5093652;28;20429;-74
2021/04/05 04:32:41;;;;;;;46.85;25.42;;;;;;;;;;5094212;28;20467;-73
2021/04/05 04:35:09;;;;;;;37.13;22.65;;;;;;;;;;5091950;28;20074;-73
2021/04/05 04:37:39;;;;;;;45.70;24.45;;;;;;;;;;5093767;28;20155;-73
2021/04/05 04:40:05;;;;;;;45.00;24.48;;;;;;;;;;5081513;28;20532;-73
2021/04/05 04:42:31;;;;;;;44.15;24.48;;;;;;;;;;5072146;28;20036;-73
2021/04/05 04:44:56;;;;;;;44.58;23.52;;;;;;;;;;5073166;28;20107;-73
2021/04/05 04:47:21;;;;;;;40.85;24.95;;;;;;;;;;5072053;28;20453;-73
2021/04/05 04:49:47;;;;;;;39.42;23.88;;;;;;;;;;5073562;28;20522;-73
2021/04/05 04:52:12;;;;;;;41.72;23.13;;;;;;;;;;5073166;28;20039;-73
2021/04/05 04:54:38;;;;;;;37.90;24.38;;;;;;;;;;5071882;28;20042;-73
2021/04/05 04:57:03;;;;;;;39.80;23.77;;;;;;;;;;5073075;28;20039;-73
2021/04/05 04:59:29;;;;;;;40.15;24.23;;;;;;;;;;5072161;28;20493;-73
2021/04/05 05:01:56;;;;;;;36.10;22.63;;;;;;;;;;5073355;28;20477;-73
2021/04/05 05:04:27;;;;;;;41.22;24.50;;;;;;;;;;5084236;28;20141;-73
2021/04/05 05:06:54;;;;;;;42.00;22.85;;;;;;;;;;5092934;28;20032;-73
2021/04/05 05:09:20;;;;;;;43.63;24.15;;;;;;;;;;5092414;28;20371;-73
2021/04/05 05:11:45;;;;;;;44.10;22.73;;;;;;;;;;5093194;28;20128;-73
2021/04/05 05:14:13;;;;;;;45.63;23.02;;;;;;;;;;5093370;28;20401;-73
2021/04/05 05:16:40;;;;;;;37.70;21.25;;;;;;;;;;5093107;28;20631;-73
2021/04/05 05:19:06;;;;;;;38.65;22.08;;;;;;;;;;5093118;28;20099;-74
2021/04/05 05:21:50;;;;;;;39.60;22.17;;;;;;;;;;5093199;28;20036;-73
2021/04/05 05:24:20;;;;;;;50.50;23.80;;;;;;;;;;5092870;28;20074;-73
2021/04/05 05:26:48;;;;;;;42.13;22.33;;;;;;;;;;5091666;28;20055;-73
2021/04/05 05:29:17;;;;;;;49.97;23.30;;;;;;;;;;5092859;28;20580;-73
2021/04/05 05:31:43;;;;;;;44.90;22.73;;;;;;;;;;5093090;28;20028;-73
2021/04/05 05:34:14;;;;;;;45.53;24.42;;;;;;;;;;5092409;28;20540;-73
2021/04/05 05:36:44;;;;;;;46.25;23.27;;;;;;;;;;5095995;28;20137;-73
2021/04/05 05:39:11;;;;;;;39.15;22.05;;;;;;;;;;5096937;28;20044;-75
2021/04/05 05:41:55;;;;;;;53.88;23.67;;;;;;;;;;5096081;28;20048;-73
2021/04/05 05:44:37;;;;;;;53.75;24.55;;;;;;;;;;5095737;28;20028;-73
2021/04/05 05:47:11;;;;;;;43.28;23.58;;;;;;;;;;5096882;28;20032;-73
2021/04/05 05:49:48;;;;;;;38.88;22.08;;;;;;;;;;5095934;28;20466;-73
2021/04/05 05:52:30;;;;;;;49.88;23.63;;;;;;;;;;5096931;28;20433;-73
2021/04/05 05:55:14;;;;;;;47.78;23.13;;;;;;;;;;5095280;28;20028;-73
2021/04/05 05:57:49;;;;;;;48.80;24.80;;;;;;;;;;5096782;28;20496;-73
2021/04/05 06:00:23;;;;;;;50.88;24.67;;;;;;;;;;5095346;28;20082;-73
2021/04/05 06:03:07;;;;;;;43.97;24.02;;;;;;;;;;5096415;28;20058;-73
2021/04/05 06:05:53;;;;;;;44.97;24.73;;;;;;;;;;5095899;28;20431;-73
2021/04/05 06:08:53;;;;;;;50.10;25.27;;;;;;;;;;5096613;28;20070;-73
2021/04/05 06:11:57;;;;;;;44.95;24.00;;;;;;;;;;5096027;28;20554;-73
2021/04/05 06:14:42;;;;;;;48.67;25.40;;;;;;;;;;5096519;28;20473;-73
2021/04/05 06:17:45;;;;;;;41.75;23.48;;;;;;;;;;5091857;28;20513;-73
2021/04/05 06:20:23;;;;;;;47.58;24.55;;;;;;;;;;5094119;28;20036;-73
2021/04/05 06:23:13;;;;;;;57.95;25.88;;;;;;;;;;5095423;28;20040;-73
2021/04/05 06:25:50;;;;;;;50.53;25.95;;;;;;;;;;5096421;28;20069;-73
2021/04/05 06:28:38;;;;;;;46.15;24.35;;;;;;;;;;5096070;28;20044;-73
2021/04/05 06:31:04;;;;;;;42.90;23.40;;;;;;;;;;5094991;28;20482;-73
2021/04/05 06:33:30;;;;;;;40.42;24.40;;;;;;;;;;5094787;28;20081;-73
2021/04/05 06:36:15;;;;;;;48.28;24.42;;;;;;;;;;5093692;28;20032;-74
2021/04/05 06:38:46;;;;;;;43.47;24.45;;;;;;;;;;5093575;28;20092;-73
2021/04/05 06:41:33;;;;;;;46.08;24.65;;;;;;;;;;5093754;28;20470;-73
2021/04/05 06:44:07;;;;;;;41.20;22.90;;;;;;;;;;5094914;28;20484;-72
2021/04/05 06:46:51;;;;;;;50.97;25.00;;;;;;;;;;5093994;28;20032;-73
2021/04/05 06:49:39;;;;;;;46.47;25.80;;;;;;;;;;5094964;28;20032;-73
2021/04/05 06:52:29;;;;;;;51.58;25.58;;;;;;;;;;5094642;28;20039;-73
2021/04/05 06:55:03;;;;;;;50.88;23.67;;;;;;;;;;5094302;28;20070;-74
2021/04/05 06:57:50;;;;;;;50.33;24.10;;;;;;;;;;5094564;28;20036;-74
2021/04/05 07:00:37;;;;;;;44.90;24.95;;;;;;;;;;5094800;28;20028;-74
2021/04/05 07:03:40;;;;;;;45.40;24.75;;;;;;;;;;5094498;28;20040;-74
2021/04/05 07:06:38;;;;;;;53.22;24.95;;;;;;;;;;5086459;28;20042;-75
2021/04/05 07:09:16;;;;;;;40.72;23.27;;;;;;;;;;5093430;28;20055;-76
2021/04/05 07:12:08;;;;;;;39.60;23.77;;;;;;;;;;5093002;28;20051;-75
2021/04/05 07:14:50;;;;;;;44.85;23.63;;;;;;;;;;5092916;28;20467;-73
2021/04/05 07:17:23;;;;;;;35.75;23.27;;;;;;;;;;5092968;28;20053;-73
2021/04/05 07:20:11;;;;;;;39.85;24.15;;;;;;;;;;5094099;28;20036;-74
2021/04/05 07:22:47;;;;;;;41.13;22.15;;;;;;;;;;5092967;28;20024;-73
2021/04/05 07:25:29;;;;;;;41.33;22.42;;;;;;;;;;5092986;28;20173;-73
2021/04/05 07:28:20;;;;;;;39.45;23.15;;;;;;;;;;5093813;28;20657;-74
2021/04/05 07:30:53;;;;;;;35.42;20.23;;;;;;;;;;5074991;28;534141;-74
2021/04/05 07:33:24;;;;;;;37.00;21.13;;;;;;;;;;5094749;28;20028;-74
2021/04/05 07:36:11;;;;;;;30.77;18.88;;;;;;;;;;5093964;28;20064;-74
2021/04/05 07:38:54;;;;;;;26.52;18.25;;;;;;;;;;5094668;28;20466;-75
2021/04/05 07:41:37;;;;;;;28.02;18.33;;;;;;;;;;5095050;28;20402;-75
2021/04/05 07:44:18;;;;;;;26.27;16.77;;;;;;;;;;5074489;28;20028;-75
2021/04/05 07:46:49;;;;;;;30.52;15.50;;;;;;;;;;5074504;28;20490;-75
2021/04/05 07:49:21;;;;;;;26.38;16.08;;;;;;;;;;5073033;28;20467;-75
2021/04/05 07:51:52;;;;;;;25.63;16.73;;;;;;;;;;5074625;28;20459;-75
2021/04/05 07:54:20;;;;;;;24.20;16.20;;;;;;;;;;5074023;28;20642;-75
2021/04/05 07:57:07;;;;;;;23.13;15.70;;;;;;;;;;5073887;28;20037;-75
2021/04/05 07:59:45;;;;;;;25.95;16.42;;;;;;;;;;5074224;28;20032;-75
2021/04/05 08:02:10;;;;;;;21.80;14.98;;;;;;;;;;5073286;28;20091;-75
2021/04/05 08:05:14;;;;;;;30.27;16.63;;;;;;;;;;5056396;28;20509;-75
2021/04/05 08:07:56;;;;;;;25.83;16.40;;;;;;;;;;5073827;28;20043;-74
2021/04/05 08:11:03;;;;;;;24.73;16.38;;;;;;;;;;5076042;28;20039;-73
2021/04/05 08:13:39;;;;;;;25.48;16.08;;;;;;;;;;5092867;28;20055;-74
2021/04/05 08:16:20;;;;;;;20.85;15.43;;;;;;;;;;5092894;28;20136;-74
2021/04/05 08:19:02;;;;;;;21.65;15.35;;;;;;;;;;5092926;28;20024;-74
2021/04/05 08:21:39;;;;;;;26.27;16.13;;;;;;;;;;5094267;28;20040;-74
2021/04/05 08:24:19;;;;;;;24.08;15.15;;;;;;;;;;5093870;28;20040;-74
2021/04/05 08:26:55;;;;;;;20.83;14.80;;;;;;;;;;5093633;28;20040;-75
2021/04/05 08:29:42;;;;;;;22.80;15.18;;;;;;;;;;5093838;28;20040;-75
2021/04/05 08:32:35;;;;;;;24.02;14.98;;;;;;;;;;5094239;28;20028;-75
2021/04/05 08:35:25;;;;;;;20.23;13.90;;;;;;;;;;5093694;28;20050;-75
2021/04/05 08:38:08;;;;;;;21.10;13.73;;;;;;;;;;5092451;28;20122;-74
2021/04/05 08:40:52;;;;;;;21.08;14.10;;;;;;;;;;5093900;28;20409;-74
2021/04/05 08:43:33;;;;;;;16.30;8.75;;;;;;;;;;5092335;28;20036;-72
2021/04/05 08:46:12;;;;;;;7.13;4.45;;;;;;;;;;5093688;28;20028;-73
2021/04/05 08:48:47;;;;;;;6.82;4.28;;;;;;;;;;5093541;28;20043;-73
2021/04/05 08:51:30;;;;;;;4.53;3.20;;;;;;;;;;5093720;28;20371;-72
2021/04/05 08:53:57;;;;;;;2.33;2.03;;;;;;;;;;5093697;28;20039;-72
2021/04/05 08:56:35;;;;;;;5.03;2.30;;;;;;;;;;5093704;28;20032;-72
2021/04/05 08:59:32;;;;;;;2.72;2.00;;;;;;;;;;5093653;28;20039;-71
2021/04/05 09:02:05;;;;;;;2.70;1.90;;;;;;;;;;5093093;28;20021;-72
2021/04/05 09:04:32;;;;;;;4.32;2.45;;;;;;;;;;5092232;28;20039;-72
2021/04/05 09:07:24;;;;;;;3.45;2.25;;;;;;;;;;5093008;28;20054;-72
2021/04/05 09:09:53;;;;;;;2.92;2.22;;;;;;;;;;5093192;28;20432;-72
2021/04/05 09:12:20;;;;;;;3.47;2.53;;;;;;;;;;5091986;28;20126;-72
2021/04/05 09:15:05;;;;;;;2.95;2.05;;;;;;;;;;5092146;28;20028;-72
2021/04/05 09:18:05;;;;;;;2.13;1.92;;;;;;;;;;5092268;28;20062;-72
2021/04/05 09:20:38;;;;;;;2.75;1.63;;;;;;;;;;5093210;28;20032;-72
2021/04/05 09:23:28;;;;;;;2.25;1.58;;;;;;;;;;5093128;28;20032;-73
2021/04/05 09:26:15;;;;;;;2.15;1.40;;;;;;;;;;5093137;28;20040;-73
2021/04/05 09:28:59;;;;;;;1.25;1.15;;;;;;;;;;5092555;28;20039;-74
2021/04/05 09:31:51;;;;;;;1.45;1.17;;;;;;;;;;5090790;28;20263;-73
2021/04/05 09:34:24;;;;;;;1.27;0.70;;;;;;;;;;5093180;28;20028;-72
2021/04/05 09:37:10;;;;;;;0.60;0.60;;;;;;;;;;5092964;28;20039;-72
2021/04/05 09:39:53;;;;;;;0.60;0.60;;;;;;;;;;5091971;28;20039;-73
2021/04/05 09:42:24;;;;;;;0.40;0.40;;;;;;;;;;5093147;28;20389;-72
2021/04/05 09:45:11;;;;;;;0.47;0.40;;;;;;;;;;5092030;28;20084;-73
2021/04/05 09:47:36;;;;;;;;;;;;;;;;;;5093284;28;20036;-73
2021/04/05 09:50:23;;;;;;;0.97;0.60;;;;;;;;;;5092965;28;20069;-72
2021/04/05 09:52:55;;;;;;;2.03;0.52;;;;;;;;;;5091944;28;20039;-73
2021/04/05 09:55:33;;;;;;;1.00;0.50;;;;;;;;;;5093043;28;20050;-73
2021/04/05 09:58:13;;;;;;;0.50;0.47;;;;;;;;;;5091808;28;20053;-73
2021/04/05 10:00:40;;;;;;;0.55;0.50;;;;;;;;;;5092382;28;20401;-73
2021/04/05 10:03:08;;;;;;;1.17;0.55;;;;;;;;;;5092887;28;20032;-73
2021/04/05 10:05:41;;;;;;;0.45;0.45;;;;;;;;;;5093061;28;20055;-73
2021/04/05 10:08:12;;;;;;;0.40;0.40;;;;;;;;;;5092721;28;20032;-73
2021/04/05 10:10:37;;;;;;;0.82;0.50;;;;;;;;;;5093148;28;20040;-73
2021/04/05 10:13:06;;;;;;;0.68;0.68;;;;;;;;;;5092665;28;20394;-73
2021/04/05 10:15:32;;;;;;;0.85;0.68;;;;;;;;;;5092578;28;20127;-73
2021/04/05 10:17:59;;;;;;;0.70;0.70;;;;;;;;;;5092787;28;20032;-73
2021/04/05 10:20:30;;;;;;;1.15;0.50;;;;;;;;;;5093132;28;20036;-73
2021/04/05 10:22:56;;;;;;;1.25;0.80;;;;;;;;;;5096350;28;20050;-73
2021/04/05 10:25:24;;;;;;;0.60;0.60;;;;;;;;;;5089148;28;20059;-74
2021/04/05 10:27:58;;;;;;;0.63;0.60;;;;;;;;;;5074857;28;20206;-73
2021/04/05 10:30:32;;;;;;;1.55;0.80;;;;;;;;;;5075750;28;20463;-73
2021/04/05 10:33:05;;;;;;;4.32;1.10;;;;;;;;;;5076137;28;20028;-73
2021/04/05 10:35:35;;;;;;;1.92;0.80;;;;;;;;;;5076037;28;20035;-74
2021/04/05 10:38:05;;;;;;;1.92;0.93;;;;;;;;;;5075653;28;20032;-73
2021/04/05 10:40:33;;;;;;;7.10;1.25;;;;;;;;;;5091119;28;20067;-73
2021/04/05 10:43:06;;;;;;;8.43;1.85;;;;;;;;;;5096154;28;20422;-73
2021/04/05 10:45:37;;;;;;;5.35;1.70;;;;;;;;;;5095001;28;20035;-73
2021/04/05 10:48:06;;;;;;;6.60;1.42;;;;;;;;;;5093673;28;20115;-73
2021/04/05 10:50:35;;;;;;;9.77;1.45;;;;;;;;;;5096062;28;20036;-73
2021/04/05 10:53:13;;;;;;;5.38;1.60;;;;;;;;;;5095006;28;20040;-73
2021/04/05 10:55:44;;;;;;;4.85;1.35;;;;;;;;;;5096005;28;20436;-73
2021/04/05 10:58:15;;;;;;;2.88;1.23;;;;;;;;;;5095856;28;20032;-73
2021/04/05 11:00:41;;;;;;;9.48;2.35;;;;;;;;;;5094476;28;20032;-73
2021/04/05 11:03:15;;;;;;;4.38;1.42;;;;;;;;;;5095729;28;20016;-73
2021/04/05 11:05:43;;;;;;;4.93;1.48;;;;;;;;;;5095742;28;20619;-73
2021/04/05 11:08:09;;;;;;;6.80;1.92;;;;;;;;;;5095311;28;20100;-73
2021/04/05 11:10:36;;;;;;;7.43;1.90;;;;;;;;;;5095369;28;20111;-73
2021/04/05 11:13:06;;;;;;;7.40;1.60;;;;;;;;;;5095734;28;20061;-73
2021/04/05 11:15:35;;;;;;;8.70;1.58;;;;;;;;;;5096767;28;20375;-73
2021/04/05 11:18:05;;;;;;;4.95;1.13;;;;;;;;;;5115926;28;20027;-73
2021/04/05 11:20:33;;;;;;;1.85;0.80;;;;;;;;;;5116223;28;20046;-73
2021/04/05 11:23:07;;;;;;;4.28;1.33;;;;;;;;;;5113793;28;20066;-72
2021/04/05 11:25:41;;;;;;;1.85;0.65;;;;;;;;;;5093796;28;20080;-72
2021/04/05 11:28:15;;;;;;;6.80;1.05;;;;;;;;;;5093765;28;20476;-72
2021/04/05 11:30:42;;;;;;;3.63;0.75;;;;;;;;;;5095202;28;20052;-72
2021/04/05 11:33:11;;;;;;;4.88;1.35;;;;;;;;;;5093943;28;20024;-72
2021/04/05 11:35:37;;;;;;;3.85;0.90;;;;;;;;;;5094019;28;20043;-71
2021/04/05 11:38:11;;;;;;;1.98;1.02;;;;;;;;;;5094793;28;20031;-71
2021/04/05 11:40:37;;;;;;;2.08;0.90;;;;;;;;;;5094771;28;20085;-72
2021/04/05 11:43:13;;;;;;;2.60;1.00;;;;;;;;;;5093895;28;20421;-72
2021/04/05 11:45:43;;;;;;;1.40;0.68;;;;;;;;;;5094857;28;20038;-72
2021/04/05 11:48:20;;;;;;;1.05;0.50;;;;;;;;;;5094720;28;20028;-72
2021/04/05 11:50:46;;;;;;;4.93;0.70;;;;;;;;;;5094114;28;20040;-71
2021/04/05 11:53:37;;;;;;;1.67;0.77;;;;;;;;;;5094792;28;20032;-72
2021/04/05 11:56:05;;;;;;;1.83;1.00;;;;;;;;;;5093579;28;20040;-71
2021/04/05 11:58:37;;;;;;;2.42;1.50;;;;;;;;;;5093145;28;20071;-71
2021/04/05 12:01:04;;;;;;;1.90;0.70;;;;;;;;;;5093130;28;20039;-71
2021/04/05 12:03:43;;;;;;;5.97;0.90;;;;;;;;;;5093185;28;20031;-71
2021/04/05 12:06:15;;;;;;;2.17;0.80;;;;;;;;;;5094592;28;20028;-71
2021/04/05 12:09:02;;;;;;;3.05;0.52;;;;;;;;;;5088218;28;20509;-73
2021/04/05 12:12:02;;;;;;;2.20;0.82;;;;;;;;;;5084413;28;20032;-72
2021/04/05 12:14:29;;;;;;;1.63;0.70;;;;;;;;;;5083521;28;20058;-72
2021/04/05 12:16:56;;;;;;;2.20;0.70;;;;;;;;;;5084078;28;20077;-72
2021/04/05 12:19:33;;;;;;;4.38;0.90;;;;;;;;;;5082445;28;20109;-72
2021/04/05 12:22:00;;;;;;;4.47;1.15;;;;;;;;;;5082420;28;20311;-72
2021/04/05 12:24:32;;;;;;;2.80;0.85;;;;;;;;;;5082611;28;20386;-72
2021/04/05 12:27:01;;;;;;;2.47;1.40;;;;;;;;;;5083938;28;20032;-71
2021/04/05 12:29:27;;;;;;;1.17;0.73;;;;;;;;;;5081524;28;20044;-72
2021/04/05 12:31:55;;;;;;;5.07;1.10;;;;;;;;;;5085091;28;20037;-72
2021/04/05 12:34:26;;;;;;;6.85;1.30;;;;;;;;;;5082081;28;20098;-72
2021/04/05 12:36:52;;;;;;;4.07;1.48;;;;;;;;;;5080269;28;20028;-72
2021/04/05 12:39:18;;;;;;;4.13;1.05;;;;;;;;;;5084532;28;20032;-72
2021/04/05 12:41:48;;;;;;;2.75;1.33;;;;;;;;;;5086026;28;20107;-73
2021/04/05 12:44:30;;;;;;;4.85;1.25;;;;;;;;;;5083873;28;20032;-72
2021/04/05 12:47:00;;;;;;;5.15;1.45;;;;;;;;;;5083913;28;20037;-72
2021/04/05 12:49:34;;;;;;;5.53;1.50;;;;;;;;;;5083044;28;20039;-72
2021/04/05 12:52:06;;;;;;;4.60;1.48;;;;;;;;;;5081128;28;20465;-72
2021/04/05 12:54:35;;;;;;;7.03;1.63;;;;;;;;;;5083424;28;20028;-72
2021/04/05 12:57:03;;;;;;;8.02;2.15;;;;;;;;;;5084047;28;20078;-72
2021/04/05 12:59:29;;;;;;;7.72;1.60;;;;;;;;;;5081202;28;20060;-72
2021/04/05 13:02:02;;;;;;;7.97;1.98;;;;;;;;;;5086773;28;20066;-72
2021/04/05 13:04:30;;;;;;;5.53;1.70;;;;;;;;;;5093587;28;20040;-72
2021/04/05 13:07:01;;;;;;;3.70;1.38;;;;;;;;;;5093246;28;20032;-72
2021/04/05 13:09:38;;;;;;;7.20;1.80;;;;;;;;;;5093252;28;20081;-72
2021/04/05 13:12:17;;;;;;;4.75;1.60;;;;;;;;;;5083125;28;20024;-72
2021/04/05 13:14:52;;;;;;;3.88;1.15;;;;;;;;;;5083040;28;20037;-72
2021/04/05 13:17:29;;;;;;;5.05;1.73;;;;;;;;;;5084282;28;20355;-72
2021/04/05 13:20:12;;;;;;;5.63;1.67;;;;;;;;;;5093647;28;20040;-72
2021/04/05 13:22:41;;;;;;;6.22;1.50;;;;;;;;;;5092456;28;20072;-70
2021/04/05 13:25:09;;;;;;;3.33;1.20;;;;;;;;;;5092166;28;20042;-71
2021/04/05 13:27:36;;;;;;;8.15;1.65;;;;;;;;;;5093155;28;20028;-73
2021/04/05 13:30:05;;;;;;;5.40;1.52;;;;;;;;;;5087027;28;20047;-74
2021/04/05 13:32:33;;;;;;;7.25;2.03;;;;;;;;;;5084014;28;20366;-73
2021/04/05 13:35:22;;;;;;;4.68;1.60;;;;;;;;;;5075410;28;20036;-73
2021/04/05 13:37:52;;;;;;;10.65;2.40;;;;;;;;;;5067186;28;20040;-74
2021/04/05 13:40:24;;;;;;;6.75;1.73;;;;;;;;;;5084952;28;20047;-71
2021/04/05 13:42:53;;;;;;;8.18;1.67;;;;;;;;;;5091623;28;20070;-73
2021/04/05 13:45:21;;;;;;;12.65;2.20;;;;;;;;;;5092623;28;20040;-72
2021/04/05 13:47:49;;;;;;;11.05;2.33;;;;;;;;;;5082092;28;20397;-72
2021/04/05 13:50:19;;;;;;;8.43;1.83;;;;;;;;;;5083029;28;20031;-72
2021/04/05 13:52:50;;;;;;;6.50;1.42;;;;;;;;;;5078258;28;20037;-72
2021/04/05 13:55:29;;;;;;;7.32;1.88;;;;;;;;;;5072686;28;20486;-73
2021/04/05 13:57:58;;;;;;;6.07;2.30;;;;;;;;;;5076519;28;20051;-73
2021/04/05 14:00:29;;;;;;;6.45;1.48;;;;;;;;;;5076847;28;20037;-73
2021/04/05 14:03:03;;;;;;;6.72;1.60;;;;;;;;;;5076627;28;20162;-73
2021/04/05 14:05:42;;;;;;;13.27;1.50;;;;;;;;;;5076703;28;20072;-73
2021/04/05 14:08:31;;;;;;;7.85;1.73;;;;;;;;;;5076217;28;20032;-72
2021/04/05 14:11:05;;;;;;;4.45;1.40;;;;;;;;;;5090875;28;20047;-73
2021/04/05 14:13:33;;;;;;;3.92;1.35;;;;;;;;;;5095386;28;20105;-73
2021/04/05 14:16:31;;;;;;;2.67;1.10;;;;;;;;;;5095619;28;20035;-72
2021/04/05 14:19:09;;;;;;;4.18;1.00;;;;;;;;;;5085075;28;20039;-72
2021/04/05 14:21:36;;;;;;;4.45;1.27;;;;;;;;;;5095467;28;20028;-73
2021/04/05 14:24:11;;;;;;;4.85;1.10;;;;;;;;;;5096606;28;20055;-73
2021/04/05 14:26:44;;;;;;;6.97;1.33;;;;;;;;;;5096325;28;20032;-73
2021/04/05 14:29:13;;;;;;;11.82;3.30;;;;;;;;;;5096094;28;20082;-72
2021/04/05 14:31:43;;;;;;;7.05;1.70;;;;;;;;;;5093192;28;20047;-73
2021/04/05 14:34:25;;;;;;;5.68;0.93;;;;;;;;;;5096297;28;20085;-73
2021/04/05 14:37:18;;;;;;;7.22;1.85;;;;;;;;;;5095345;28;20035;-73
2021/04/05 14:39:58;;;;;;;6.43;1.50;;;;;;;;;;5094737;28;20051;-73
2021/04/05 14:42:33;;;;;;;8.48;2.08;;;;;;;;;;5095106;28;20032;-72
2021/04/05 14:45:03;;;;;;;7.75;1.40;;;;;;;;;;5094891;28;20036;-72
2021/04/05 14:47:30;;;;;;;4.68;1.52;;;;;;;;;;5095754;28;20045;-72
2021/04/05 14:50:02;;;;;;;5.85;1.75;;;;;;;;;;5095766;28;20123;-72
2021/04/05 14:52:35;;;;;;;6.57;2.55;;;;;;;;;;5092732;28;20032;-72
2021/04/05 14:55:02;;;;;;;6.90;2.20;;;;;;;;;;5080528;28;20035;-72
2021/04/05 14:57:49;;;;;;;3.22;1.20;;;;;;;;;;5083894;28;20394;-72
2021/04/05 15:00:16;;;;;;;;;;;;;;;;;;5068386;28;20029;-72
2021/04/05 15:02:44;;;;;;;5.03;0.98;;;;;;;;;;5083013;28;20373;-72
2021/04/05 15:05:12;;;;;;;3.63;1.10;;;;;;;;;;5085331;28;20512;-72